KJBR Airport (Jonesboro Muni) Information

FAA: JBR - ICAO: KJBR

KJBR Airport Location

State Arkansas
County Craighead
City Jonesboro
KJBR Airport is 3 miles east of Jonesboro, AR.
Latitude 35-49-54.1600N
Longitude 090-38-47.1190W
Elevation 262ft

KJBR Airport METARs

METAR KJBR 301753Z AUTO 00000KT 5SM HZ CLR 17/06 A3012 RMK AO2 SLP200 T01720056 10172 20061 58004 $
Altimeter 30.12"
Temperature 17.2°C (63.0°F)
Wind 0° at 0KT
Clouds Skies are clear.
Visibility 5.0mi
Time observed: 2021-11-30T17:53:00Z

KJBR Airport Details

Status Operational
Activation April 1940
Ownership Public
Usage Public
Chart MEMPHIS
ATC on-site No
Beacon schedule sunset-sunrise
Beacon color clear green

KJBR Airport Contacts

Owner CITY OF JONESBORO
Owner address PO BOX 1845, JONESBORO, AR 72403
Owner phone 870-932-1052
Manager CHIEF OF AFLD MANAGEMENT
Manager address LITTLE ROCK AFB, JACKSONVILLE, AR 72076
Manager phone 501-987-3103

KJBR Airport (Jonesboro Muni) Radio Frequencies

KJBR (Airport) Radio Frequencies

UNICOM 123
Common traffic advisory frequency (CTAF) 123